Tiempo atmosférico en la estación meteorológica de Izaña, Santa Cruz de Tenerife (2371 m.)



Fecha
DESCASC
Temp. máxima en grados centígrados (hora)
DESCASC
Temp. mínima en grados centígrados (hora)
DESCASC
Temp. media en grados centígrados
DESCASC
Racha de viento máxima en m/sg (hora)
DESCASC
Velocidad máxima media en intervalos de 10 minutos(hora)
DESCASC
Precipitaciones diarias en mm
DESCASC
Precipitaciones de 00:00 a 06:00 en mm
DESCASC
Precipitaciones de 06:00 a 12:00 en mm
DESCASC
Precipitaciones de 12:00 a 18:00 en mm
DESCASC
Precipitaciones de 18:00 a 24:00 en mm
DESCASC
19-09-2019 21.3 (12:40) 12.2 (22:10) 16.7 8.61 (22:00) 7.78 (21:50) 0 0 0 0 0
18-09-2019 20.6 (15:20) 14.1 (07:50) 17.4 14.44 (02:30) 12.22 (08:20) 0 0 0 0 0
17-09-2019 21.9 (13:10) 15.2 (00:00) 18.5 23.33 (06:20) 19.72 (06:40) 0 0 0 0 0
16-09-2019 21.8 (15:40) 11.6 (00:00) 16.7 23.61 (07:40) 16.67 (06:30) 5.4 3.2 2.2 0 0
15-09-2019 24.2 (14:30) 14.3 (00:00) 19.3 21.11 (23:10) 16.94 (23:10) 0 0 0 0 0
14-09-2019 20.2 (17:00) 12.3 (00:00) 16.3 11.39 (23:40) 8.89 (23:30) 0 0 0 0 0
13-09-2019 19.5 (14:00) 9 (00:00) 14.3 12.5 (07:00) 8.89 (00:50) 0 0 0 0 0
12-09-2019 20.2 (13:30) 10.1 (00:00) 15.2 15.28 (01:30) 12.22 (01:20) 0 0 0 0 0
11-09-2019 20.8 (14:30) 11 (00:00) 15.9 18.61 (04:20) 16.39 (06:30) 0 0 0 0 0
10-09-2019 20 (13:30) 13 (00:10) 16.5 16.67 (15:30) 14.44 (22:20) 0 0 0 0 0
09-09-2019 16.1 (18:30) 8.4 (05:50) 12.3 16.39 (00:20) 13.89 (01:20) 0 0 0 0 0
08-09-2019 16.6 (13:10) 9.2 (00:00) 12.9 18.89 (22:10) 14.72 (22:50) 0 0 0 0 0
07-09-2019 17.3 (14:00) 8.8 (00:00) 13 8.33 (16:20) 6.11 (01:00) 0 0 0 0 0
06-09-2019 18.9 (15:00) 8.6 (00:00) 13.8 14.17 (11:20) 9.17 (00:10) 0 0 0 0 0
05-09-2019 20.5 (13:50) 10.5 (00:00) 15.5 22.22 (17:40) 17.22 (17:30) 0 0 0 0 0
04-09-2019 22 (13:40) 14.6 (00:00) 18.3 18.61 (05:10) 13.33 (06:20) 0 0 0 0 0
03-09-2019 20.8 (13:20) 13.1 (00:00) 16.9 16.11 (23:20) 13.06 (23:59) 0 0 0 0 0
02-09-2019 21.4 (15:50) 12.6 (00:00) 17 23.33 (07:00) 18.89 (07:00) 0 0 0 0 0
01-09-2019 21 (13:40) 12.1 (00:00) 16.6 16.67 (07:50) 15.28 (07:40) 0 0 0 0 0
31-08-2019 22.7 (12:40) 14.6 (00:00) 18.7 8.89 (11:00) 5.28 (11:10) 0 0 0 0 0
30-08-2019 22.7 (15:00) 14.9 (00:00) 18.8 10.28 (13:40) 6.67 (15:50) 0 0 0 0 0
29-08-2019 21.9 (13:30) 14.6 (00:00) 18.3 8.89 (13:00) 6.11 (13:40) 0 0 0 0 0
28-08-2019 23.3 (14:20) 13.9 (00:00) 18.6 14.17 (17:00) 5.28 (16:10) 0 0 0 0 0
27-08-2019 23.3 (15:00) 14 (00:00) 18.6 8.06 (14:30) 5.83 (04:50) 0 0 0 0 0
26-08-2019 22.9 (13:40) 14.8 (00:00) 18.8 11.11 (17:00) 7.78 (07:40) 0.2 0.2 0 0 0
25-08-2019 22.7 (13:00) 15.8 (00:00) 19.3 15.83 (06:10) 10.83 (14:20) 0 0 0 0 0
24-08-2019 25.5 (16:20) 17.5 (00:00) 21.5 23.61 (11:10) 14.72 (11:00) 0 0 0 0 0
23-08-2019 26.5 (13:00) 19.8 (00:00) 23.1 15 (12:10) 10.56 (12:10) 0 0 0 0 0
22-08-2019 28 (15:00) 13.3 (00:00) 20.7 15 (14:20) 8.61 (07:40) 0 0 0 0 0
21-08-2019 21.4 (15:50) 11.8 (00:00) 16.6 11.67 (01:40) 9.17 (01:40) 0 0 0 0 0

Gráficas

Temp. máximas Temp. mínimas Temp. medias Precipitaciones Rachas de viento máximas Velocidades máximas media en intervalos de 10 minutos

Datos horarios

Fecha y hora oficial Temperatura (ºC) Velocidad del viento (km/h) Dirección del viento Racha (km/h) Dirección de racha Precipitación (mm) Presión (hPa) Tendencia (hPa) Humedad (%)
2019-09-19 23:00:00 13.5 17 Noroeste 27 Noroeste 0 773.1 1.1 25
2019-09-19 22:00:00 12.3 28 Noroeste 31 Noroeste 0 772.6 0.6 44
2019-09-19 21:00:00 13.3 10 Noroeste 14 Oeste 0 772.5 0.5 45
2019-09-19 20:00:00 15 6 Noroeste 20 Noroeste 0 772 0 43
2019-09-19 19:00:00 16.5 13 Noroeste 30 Noroeste 0 772 -0.2 39
2019-09-19 18:00:00 18.1 18 Norte 30 Norte 0 772 -0.4 33
2019-09-19 17:00:00 19.2 11 Sudeste 18 Sudeste 0 772 -0.6 37
2019-09-19 16:00:00 20.3 8 Este 20 Norte 0 772.2 -0.9 30
2019-09-19 15:00:00 20.6 9 Este 19 Sudeste 0 772.4 -0.8 31
2019-09-19 14:00:00 20.6 9 Sudeste 23 Este 0 772.6 -0.3 28
2019-09-19 13:00:00 19.6 15 Norte 24 Norte 0 773.1 0.4 29
2019-09-19 12:00:00 20.4 5 Norte 26 Sur 0 773.2 0.8 22
2019-09-19 11:00:00 19.5 14 Sur 22 Sur 0 772.9 0.9 24
2019-09-19 10:00:00 18.9 9 Sudeste 15 Sudeste 0 772.7 0.9 21
2019-09-19 09:00:00 16 9 Noroeste 12 Noroeste 0 772.4 1 36
2019-09-19 08:00:00 14.4 12 Noroeste 18 Noroeste 0 772 0.6 27
2019-09-19 07:00:00 14.1 18 Noroeste 22 Noroeste 0 771.8 0.2 7
2019-09-19 06:00:00 14 21 Noroeste 24 Noroeste 0 771.4 -0.7 9
2019-09-19 05:00:00 14.3 13 Noroeste 15 Noroeste 0 771.4 -1.1 8
2019-09-19 04:00:00 14.7 11 Noroeste 15 Noroeste 0 771.6 -1.2 8
2019-09-19 03:00:00 15 9 Noroeste 17 Noroeste 0 772.1 -1.1 4
2019-09-19 02:00:00 15.2 12 Noroeste 19 Noroeste 0 772.5 -0.8 5
2019-09-19 01:00:00 15.4 15 Noroeste 19 Noroeste 0 772.8 -0.2 7
2019-09-19 00:00:00 15 12 Noroeste 13 Noroeste 0 773.2 0.6 7
2019-09-18 23:00:00 15.9 6 Noroeste 12 Noroeste 0 773.3 1 3
2019-09-18 22:00:00 15.3 5 Norte 14 Noroeste 0 773 1 12
2019-09-18 21:00:00 14.9 13 Noroeste 24 Noroeste 0 772.6 0.6 6
2019-09-18 20:00:00 16.3 20 Noroeste 30 Noroeste 0 772.3 0.3 11
2019-09-18 19:00:00 17.9 26 Noroeste 40 Noroeste 0 772 -0.1 13
2019-09-18 18:00:00 18.9 24 Noroeste 35 Noroeste 0 772 -0.4 25
2019-09-18 17:00:00 19.5 22 Noroeste 33 Norte 0 772 -0.7 25
2019-09-18 16:00:00 19.9 13 Norte 28 Noroeste 0 772.1 -0.9 22
2019-09-18 15:00:00 19.8 8 Norte 26 Norte 0 772.4 -0.6 19
2019-09-18 14:00:00 19.9 15 Norte 27 Noroeste 0 772.7 0 15
2019-09-18 13:00:00 19.8 10 Norte 22 Norte 0 773 0.5 11
2019-09-18 12:00:00 19.8 9 Norte 18 Norte 0 773 1.2 11
2019-09-18 11:00:00 19.5 14 Noroeste 22 Norte 0 772.7 1.6 7
2019-09-18 10:00:00 17.2 15 Noroeste 31 Noroeste 0 772.5 1.3 7
2019-09-18 09:00:00 14.5 27 Noroeste 50 Noroeste 0 771.8 0.9 9
2019-09-18 08:00:00 14.2 42 Noroeste 47 Noroeste 0 771.1 0.2 8
2019-09-18 07:00:00 14.5 39 Noroeste 46 Noroeste 0 771.2 -0.3 7
2019-09-18 06:00:00 14.9 39 Noroeste 46 Noroeste 0 770.9 -0.9 7
2019-09-18 05:00:00 15.7 37 Noroeste 47 Noroeste 0 770.9 -1.2 7
2019-09-18 04:00:00 16.1 33 Noroeste 49 Noroeste 0 771.5 -1.2 7
2019-09-18 03:00:00 16.2 36 Noroeste 52 Noroeste 0 771.8 -1 7
2019-09-18 02:00:00 16.2 38 Noroeste 51 Noroeste 0 772.1 -1.1 11
2019-09-18 01:00:00 15.5 32 Noroeste 46 Noroeste 0 772.7 -0.1 13
2019-09-18 00:00:00 15.2 42 Noroeste 48 Noroeste 0 772.8 0.3 12
2019-09-17 23:00:00 15.5 33 Noroeste 49 Noroeste 0 773.2 0.6 16
2019-09-17 22:00:00 15.5 39 Noroeste 51 Noroeste 0 772.8 0.6 20
2019-09-17 21:00:00 15.6 40 Noroeste 54 Noroeste 0 772.5 0 22
2019-09-17 20:00:00 16.7 36 Noroeste 55 Noroeste 0 772.6 0.1 24
2019-09-15 17:00:00 22.6 36 Noroeste 59 Noroeste 0 774.1 -0.6 20
2019-09-15 16:00:00 23.3 25 Noroeste 46 Noroeste 0 774.3 -0.7 20
2019-09-15 15:00:00 23.4 23 Norte 66 Noroeste 0 774.5 -0.8 19
2019-09-15 14:00:00 23.4 46 Oeste 67 Oeste 0 774.7 -0.6 19
2019-09-15 13:00:00 23.3 41 Noroeste 62 Noroeste 0 775 0.3 17
2019-09-15 12:00:00 22.9 23 Oeste 44 Noroeste 0 775.3 1.5 12
2019-09-15 11:00:00 21.5 12 Noroeste 30 Noroeste 0 775.3 1.6 12
2019-09-15 10:00:00 19.7 28 Oeste 50 Noroeste 0 774.7 1.2 9
2019-09-15 09:00:00 18.1 40 Oeste 48 Oeste 0 773.8 0.7 9
2019-09-15 08:00:00 15.8 30 Oeste 40 Oeste 0 773.7 0.7 14
2019-09-15 07:00:00 16.8 25 Oeste 37 Oeste 0 773.5 0.4 11
2019-09-15 06:00:00 16.1 18 Oeste 24 Oeste 0 773.1 -0.2 13
2019-09-15 05:00:00 14.8 14 Noroeste 32 Noroeste 0 773 -0.5 19
2019-09-15 04:00:00 17.4 25 Noroeste 44 Noroeste 0 773.1 -0.8 11
2019-09-15 03:00:00 17.1 30 Oeste 49 Oeste 0 773.3 -0.7 14
2019-09-15 02:00:00 16.7 36 Oeste 44 Oeste 0 773.5 -0.5 17
2019-09-15 01:00:00 16.3 26 Oeste 36 Oeste 0 773.9 0.1 18
2019-09-15 00:00:00 16.5 26 Oeste 41 Oeste 0 774 0.7 16
2019-09-14 23:00:00 14.8 31 Sudoeste 36 Sudoeste 0 774 1 8
2019-09-14 22:00:00 14.5 29 Sudoeste 33 Sudoeste 0 773.8 0.9 11
2019-09-14 21:00:00 14.8 26 Sudoeste 28 Sudoeste 0 773.3 0.6 16
2019-09-14 20:00:00 16.4 9 Sur 14 Sur 0 773 0.3 16
2019-09-14 19:00:00 18 12 Sur 16 Sur 0 772.9 0.4 22
2019-09-14 18:00:00 19 5 Nordeste 17 Nordeste 0 772.7 0.1 32
2019-09-14 17:00:00 19.8 7 Nordeste 25 Nordeste 0 772.7 -0.2 30
2019-09-14 16:00:00 18.9 11 Norte 21 Norte 0 772.5 -0.7 42
2019-09-14 15:00:00 19.5 12 Sur 29 Sur 0 772.6 -0.7 24
2019-09-14 14:00:00 18.4 15 Sudeste 26 Sudeste 0 772.9 -0.3 42
2019-09-14 13:00:00 19 17 Sudeste 23 Sudeste 0 773.2 0.3 38
2019-09-14 12:00:00 18.7 11 Sudeste 19 Este 0 773.3 0.8 28
2019-09-14 11:00:00 17.9 8 Este 17 Sudeste 0 773.2 0.9 19
2019-09-14 10:00:00 16.6 8 Sudeste 13 Sudeste 0 772.9 1 21
2019-09-14 09:00:00 16 6 Este 10 Sudeste 0 772.5 0.8 23
2019-09-14 08:00:00 14.5 5 Norte 11 Norte 0 772.3 0.7 12
2019-09-14 07:00:00 13.4 7 Noroeste 12 Norte 0 771.9 0 18
2019-09-14 06:00:00 13.6 6 Noroeste 10 Norte 0 771.7 -0.6 19
2019-09-14 05:00:00 13.8 6 Sur 8 Norte 0 771.6 -1.1 16
2019-09-14 04:00:00 13.3 9 Norte 12 Norte 0 771.9 -1.1 23
2019-09-14 03:00:00 13.2 6 Norte 17 Sudeste 0 772.3 -0.9 19
2019-09-14 02:00:00 12.4 10 Sudeste 18 Este 0 772.7 -0.5 17
2019-09-14 01:00:00 13.2 12 Este 18 Este 0 773 0 27
2019-09-14 00:00:00 15.1 10 Este 15 Este 0 773.2 0.8 10
2019-09-13 23:00:00 15.5 9 Nordeste 13 Nordeste 0 773.2 0.9 10
2019-09-13 22:00:00 15.5 10 Este 15 Nordeste 0 773 0.9 10
2019-09-13 21:00:00 14.9 8 Norte 16 Nordeste 0 772.4 0.3 10
2019-09-13 20:00:00 16 7 Norte 16 Norte 0 772.3 0.3 17
2019-09-13 19:00:00 17 8 Norte 15 Este 0 772.1 0.1 39
2019-09-13 18:00:00 18.1 9 Sudeste 23 Sudeste 0 772.1 -0.3 31
2019-09-13 17:00:00 18.6 13 Sudeste 24 Sudeste 0 772 -0.8 26
2019-09-13 16:00:00 18.7 13 Sudeste 28 Sudeste 0 772 -0.9 32
2019-09-13 15:00:00 18.8 17 Sudeste 32 Sudeste 0 772.4 -0.6 20
2019-09-13 14:00:00 19.4 20 Sudeste 34 Sudeste 0 772.8 -0.1 12
2019-09-13 13:00:00 19 19 Sudeste 33 Este 0 772.9 0.5 14
2019-09-13 12:00:00 18 17 Este 29 Sudeste 0 773 1.2 14
2019-09-13 11:00:00 16.2 9 Nordeste 18 Este 0 772.9 1.1 17
2019-09-13 10:00:00 12.2 15 Norte 32 Norte 0 772.4 1 28
2019-09-13 09:00:00 10.3 25 Norte 39 Norte 0 771.8 0.3 35
2019-09-13 08:00:00 9.9 19 Norte 39 Norte 0 771.8 0.4 36
2019-09-13 07:00:00 9.5 24 Noroeste 45 Norte 0 771.4 -0.3 36
2019-09-13 06:00:00 10.2 17 Norte 35 Norte 0 771.5 -0.4 30
2019-09-13 05:00:00 11.3 18 Norte 38 Norte 0 771.4 -0.9 22
2019-09-13 04:00:00 11.7 19 Norte 37 Norte 0 771.7 -0.5 13
2019-09-13 03:00:00 9.4 22 Norte 42 Nordeste 0 771.9 -0.8 31
2019-09-13 02:00:00 10.2 26 Norte 39 Noroeste 0 772.3 -0.6 30
2019-09-13 01:00:00 9.4 30 Norte 40 Norte 0 772.2 -0.7 33
2019-09-13 00:00:00 10.7 27 Norte 40 Norte 0 772.7 0.1 13
2019-09-12 23:00:00 11.1 31 Norte 39 Norte 0 772.9 0.7 8
2019-09-12 22:00:00 11.7 30 Norte 39 Norte 0 772.9 0.8 4
2019-09-12 21:00:00 11.7 25 Norte 37 Norte 0 772.6 0.1 6
2019-09-12 20:00:00 12.9 31 Norte 41 Norte 0 772.2 -0.5 7
2019-09-12 19:00:00 14.6 30 Norte 41 Noroeste 0 772.1 -0.5 11
2019-09-12 18:00:00 17.3 16 Norte 25 Norte 0 772.5 -0.5 12
2019-09-12 17:00:00 19.9 13 Nordeste 32 Norte 0 772.7 -0.8 16
2019-09-12 16:00:00 19.6 21 Norte 31 Norte 0 772.6 -1.2 12
2019-09-12 15:00:00 18 14 Norte 24 Norte 0 773 -0.9 22
2019-09-12 14:00:00 19.5 16 Este 32 Norte 0 773.5 -0.2 26
2019-09-12 13:00:00 19.3 19 Norte 34 Norte 0 773.8 0.5 16
2019-09-12 12:00:00 17.9 25 Norte 43 Norte 0 773.9 1.4 5
2019-09-12 11:00:00 16.3 28 Norte 45 Nordeste 0 773.7 1.6 3
2019-09-12 10:00:00 14.8 26 Nordeste 40 Nordeste 0 773.3 1.7 3
2019-09-12 09:00:00 12.3 30 Norte 44 Norte 0 772.5 1 5
2019-09-12 08:00:00 12 31 Norte 42 Norte 0 772.1 0.3 3
2019-09-12 07:00:00 11.8 31 Norte 45 Norte 0 771.6 -0.3 3
2019-09-12 06:00:00 12 33 Norte 45 Norte 0 771.5 -0.7 2
2019-09-12 05:00:00 11.9 28 Norte 42 Norte 0 771.8 -0.8 6
2019-09-12 04:00:00 11.1 33 Norte 43 Norte 0 771.9 -1.1 24
2019-09-12 03:00:00 10.3 35 Norte 46 Norte 0 772.2 -1.3 50
2019-09-12 02:00:00 10.6 38 Norte 55 Noroeste 0 772.6 -0.8 49
2019-09-12 01:00:00 11.2 39 Norte 48 Norte 0 773 -0.3 49
2019-09-12 00:00:00 11.1 34 Norte 42 Norte 0 773.5 0.4 41
2019-09-11 23:00:00 11.1 40 Norte 49 Norte 0 773.4 0.3 20
2019-09-11 22:00:00 11.1 39 Noroeste 44 Norte 0 773.3 0.1 29
2019-09-11 21:00:00 12 36 Noroeste 39 Norte 0 773.1 -0.1 30
2019-09-11 20:00:00 14.1 33 Noroeste 40 Norte 0 773.1 -0.2 24
2019-09-11 19:00:00 17.1 34 Noroeste 41 Noroeste 0 773.2 -0.4 17
2019-09-11 18:00:00 18.1 32 Noroeste 44 Noroeste 0 773.2 -0.6 10
2019-09-11 17:00:00 19.4 36 Noroeste 44 Norte 0 773.3 -1.4 7
2019-09-11 16:00:00 19.9 33 Noroeste 45 Noroeste 0 773.6 -1.1 7
2019-09-11 15:00:00 19.8 37 Noroeste 48 Norte 0 773.8 -0.7 6
2019-09-11 14:00:00 19.9 28 Noroeste 45 Noroeste 0 774.7 0.4 6
2019-09-11 13:00:00 19.3 36 Noroeste 52 Noroeste 0 774.7 0.5 5
2019-09-11 12:00:00 18.2 45 Norte 59 Noroeste 0 774.5 1.2 7
2019-09-11 11:00:00 16.6 45 Norte 55 Norte 0 774.3 1.8 7
2019-09-11 10:00:00 14.7 40 Noroeste 53 Noroeste 0 774.2 1.6 7
2019-09-11 09:00:00 12.8 52 Noroeste 60 Noroeste 0 773.3 0.8 10
2019-09-11 08:00:00 12.2 56 Noroeste 59 Noroeste 0 772.5 -0.5 9
2019-09-11 07:00:00 12.1 54 Noroeste 66 Noroeste 0 772.6 -1.1 10
2019-09-11 06:00:00 13.3 58 Noroeste 65 Noroeste 0 772.5 -1.6 20
2019-09-11 05:00:00 13.8 54 Noroeste 67 Noroeste 0 773 -1.8 21
2019-09-11 04:00:00 14 52 Noroeste 60 Noroeste 0 773.7 -1.9 24
2019-09-11 03:00:00 13.6 52 Noroeste 60 Noroeste 0 774.1 -1.8 25
2019-09-11 02:00:00 13.5 49 Noroeste 59 Noroeste 0 774.8 -1.2 29
2019-09-11 01:00:00 13.2 45 Noroeste 50 Noroeste 0 775.6 0.1 44
2019-09-11 00:00:00 13.2 44 Noroeste 48 Noroeste 0 775.9 0.6 45
2019-09-10 23:00:00 13.2 45 Noroeste 55 Noroeste 0 776 0.7 45
2019-09-10 22:00:00 13.2 51 Noroeste 53 Noroeste 0 775.5 0.6 43
2019-09-10 21:00:00 13.5 46 Noroeste 48 Noroeste 0 775.3 0.2 42
2019-09-10 20:00:00 14.8 42 Noroeste 55 Noroeste 0 775.3 0.1 39
2019-09-10 19:00:00 16.8 47 Noroeste 59 Noroeste 0 774.9 -0.6 39
2019-09-10 18:00:00 18.1 46 Noroeste 57 Noroeste 0 775.1 -0.9 38
2019-09-10 17:00:00 18.5 46 Noroeste 58 Noroeste 0 775.2 -0.9 37
2019-09-10 16:00:00 19 45 Noroeste 60 Noroeste 0 775.5 -0.9 40
2019-09-10 15:00:00 19.1 38 Noroeste 55 Noroeste 0 776 -0.6 40
2019-09-10 14:00:00 19.6 40 Noroeste 51 Noroeste 0 776.1 -0.4 41
2019-09-10 13:00:00 19 40 Noroeste 50 Noroeste 0 776.4 0 41
2019-09-10 12:00:00 18.6 34 Noroeste 46 Noroeste 0 776.6 1 41
2019-09-10 11:00:00 17.2 33 Noroeste 44 Noroeste 0 776.5 1.5 44
2019-09-10 10:00:00 16.9 24 Noroeste 50 Noroeste 0 776.4 1.2 42
2019-09-10 09:00:00 15.8 38 Noroeste 57 Noroeste 0 775.6 0.5 43
2019-09-10 08:00:00 14.1 42 Noroeste 51 Noroeste 0 775 0 43
2019-09-10 07:00:00 13.5 19 Noroeste 26 Noroeste 0 775.2 0.2 41
2019-09-10 06:00:00 13.8 10 Noroeste 23 Noroeste 0 775.1 0.1 39
2019-09-10 05:00:00 13.8 16 Noroeste 31 Oeste 0 775 -0.1 40
2019-09-10 04:00:00 14.2 13 Noroeste 39 Oeste 0 775 -0.2 37
2019-09-10 03:00:00 14.6 32 Oeste 40 Oeste 0 775 -0.4 39
2019-09-10 02:00:00 14.4 34 Oeste 41 Oeste 0 775.1 -0.2 38
2019-09-10 01:00:00 14.7 28 Oeste 38 Oeste 0 775.2 0.3 39
2019-09-10 00:00:00 13.1 24 Oeste 32 Oeste 0 775.4 1 44
2019-09-09 23:00:00 14.1 22 Oeste 33 Oeste 0 775.3 1 41
2019-09-09 22:00:00 13.9 23 Oeste 37 Oeste 0 774.9 1.1 42
2019-09-09 21:00:00 13.8 27 Oeste 35 Oeste 0 774.4 0.8 43
2019-09-09 20:00:00 14.8 11 Oeste 22 Oeste 0 774.3 0.8 40
2019-09-09 19:00:00 15.1 12 Noroeste 26 Norte 0 773.8 0.2 43
2019-09-09 18:00:00 15.1 7 Sur 21 Sudoeste 0 773.6 0 38
2019-09-09 17:00:00 15.5 7 Sudeste 25 Sudeste 0 773.5 -0.3 39
2019-09-09 16:00:00 14.6 22 Sudeste 34 Sudeste 0 773.6 -0.2 41
2019-09-09 15:00:00 14.6 24 Sudeste 41 Sudeste 0 773.6 -0.4 43
2019-09-09 14:00:00 14.6 28 Sudeste 51 Sudeste 0 773.8 0.1 38
2019-09-09 13:00:00 14.6 36 Sudeste 48 Sudeste 0 773.8 0.6 39
2019-09-09 12:00:00 13.7 35 Sudeste 49 Sudeste 0 774 1.3 39
2019-09-09 11:00:00 13.2 32 Sudeste 49 Sudeste 0 773.7 1.6 41
2019-09-09 10:00:00 12.4 36 Sudeste 48 Sudeste 0 773.2 1.6 42
2019-09-09 09:00:00 11.1 36 Sudeste 44 Sudeste 0 772.7 1.3 45
2019-09-09 08:00:00 9.1 38 Sudeste 44 Sudeste 0 772.1 0.8 50
2019-09-09 07:00:00 8.7 39 Sudeste 50 Sudeste 0 771.6 0.3 52
2019-09-09 06:00:00 8.6 42 Sudeste 50 Sudeste 0 771.4 -0.1 53
2019-09-09 05:00:00 8.8 44 Sudeste 56 Sudeste 0 771.3 -0.5 51
2019-09-09 04:00:00 8.9 43 Sudeste 56 Sudeste 0 771.3 -0.7 50
2019-09-09 03:00:00 9.1 46 Sudeste 58 Sudeste 0 771.5 -0.8 48
2019-09-09 02:00:00 9 45 Sudeste 59 Sudeste 0 771.8 -0.4 50
2019-09-09 01:00:00 8.9 46 Sudeste 59 Sudeste 0 772 0.1 52
2019-09-09 00:00:00 9.2 48 Sudeste 63 Sudeste 0 772.3 0.8 51
2019-09-08 23:00:00 9.5 51 Sudeste 68 Sudeste 0 772.2 1 50
2019-09-08 22:00:00 9.5 50 Sudeste 63 Sudeste 0 771.9 0.8 56
2019-09-08 21:00:00 9.6 44 Sudeste 57 Sudeste 0 771.5 0.2 64
2019-09-08 20:00:00 9.9 45 Sudeste 57 Sudeste 0 771.2 -0.1 62
2019-09-08 19:00:00 11.1 42 Sudeste 52 Sudeste 0 771.1 -0.3 53
2019-09-08 18:00:00 12.5 38 Sudeste 57 Sudeste 0 771.3 -0.3 45
2019-09-08 17:00:00 13.8 37 Sudeste 46 Sudeste 0 771.3 -0.4 42
2019-09-08 16:00:00 14.1 23 Sudeste 37 Sudeste 0 771.4 -0.4 54
2019-09-08 15:00:00 15.2 25 Sudeste 38 Sudeste 0 771.6 -0.1 49
2019-09-08 14:00:00 16 22 Sudeste 36 Sudeste 0 771.7 0.1 49
2019-09-08 13:00:00 16.4 22 Sudeste 39 Sudeste 0 771.8 0.5 48
2019-09-08 12:00:00 15.3 24 Sudeste 35 Sudeste 0 771.7 0.9 47
2019-09-08 11:00:00 14.5 24 Sudeste 35 Sudeste 0 771.6 1.2 49
2019-09-08 10:00:00 13.6 21 Sudeste 31 Sudeste 0 771.3 1 48
2019-09-08 09:00:00 12.1 24 Sudeste 30 Sudeste 0 770.8 0.9 38
2019-09-08 08:00:00 10.4 25 Sudeste 30 Sudeste 0 770.4 0.5 44
2019-09-08 07:00:00 10.2 24 Sudeste 26 Sudeste 0 770.3 0.1 35
2019-09-08 06:00:00 10.3 20 Sur 25 Sudeste 0 769.9 -0.6 29
2019-09-08 05:00:00 10.3 21 Sur 26 Sur 0 769.9 -1.1 30
2019-09-08 04:00:00 10.8 17 Sur 24 Sur 0 770.2 -1 26
2019-09-08 03:00:00 10.7 19 Sur 24 Sur 0 770.5 -0.8 25
2019-09-08 02:00:00 9.5 21 Sur 23 Sur 0 771 -0.6 44
2019-09-08 01:00:00 10.3 9 Sur 12 Sur 0 771.2 -0.3 44
2019-09-08 00:00:00 10.8 3 Sudoeste 5 Sudeste 0 771.3 0.2 34
2019-09-07 23:00:00 10.5 7 Sudoeste 16 Sudoeste 0 771.6 0.8 44
2019-09-07 22:00:00 10.2 15 Sudoeste 17 Sudoeste 0 771.5 0.8 41
2019-09-07 21:00:00 10.5 12 Sudoeste 13 Sudoeste 0 771.1 0.4 43
2019-09-07 20:00:00 12.7 5 Sur 10 Noroeste 0 770.8 -0.1 39
2019-09-07 19:00:00 14.2 3 Norte 17 Norte 0 770.7 -0.4 41
2019-09-07 18:00:00 15.3 5 Nordeste 22 Norte 0 770.7 -0.7 41
2019-09-07 17:00:00 15.5 10 Norte 30 Nordeste 0 770.9 -0.8 41
2019-09-07 16:00:00 17.1 9 Nordeste 22 Nordeste 0 771.1 -0.5 38
2019-09-07 15:00:00 16 11 Norte 26 Norte 0 771.4 -0.4 36
2019-09-07 14:00:00 16.7 8 Nordeste 20 Norte 0 771.7 0.2 35
2019-09-07 13:00:00 15.7 10 Norte 23 Norte 0 771.6 0.4 35
2019-09-07 12:00:00 15.8 8 Nordeste 22 Sudeste 0 771.8 1 37
2019-09-07 11:00:00 14.2 7 Norte 14 Noroeste 0 771.5 0.9 34
2019-09-07 10:00:00 12.5 13 Noroeste 20 Noroeste 0 771.2 0.8 38
2019-09-07 09:00:00 10.5 14 Noroeste 22 Noroeste 0 770.8 0.4 43
2019-09-07 08:00:00 9.3 17 Noroeste 23 Norte 0 770.6 0.1 43
2019-09-07 07:00:00 8.9 20 Noroeste 23 Noroeste 0 770.4 -0.6 48
2019-09-07 06:00:00 9 13 Norte 18 Norte 0 770.4 -1.1 48
2019-09-07 05:00:00 9.4 13 Noroeste 19 Noroeste 0 770.5 -1.3 48
2019-09-07 04:00:00 9.2 15 Noroeste 23 Norte 0 771 -1 50
2019-09-07 03:00:00 9.2 15 Norte 23 Norte 0 771.5 -0.7 51
2019-09-07 02:00:00 9.3 17 Norte 23 Norte 0 771.8 -0.3 51
2019-09-07 01:00:00 9.6 22 Norte 28 Norte 0 772 0.1 55
2019-09-07 00:00:00 9.9 22 Norte 31 Norte 0 772.2 0.6 55
2019-09-06 23:00:00 9.8 26 Norte 37 Norte 0 772.1 0.7 56
2019-09-06 22:00:00 10.1 22 Norte 34 Norte 0 771.9 0.6 55
2019-09-06 21:00:00 10.4 18 Norte 29 Norte 0 771.6 0.3 53
2019-09-06 20:00:00 12.5 23 Norte 31 Norte 0 771.4 0.1 44
2019-09-06 19:00:00 14.4 21 Norte 30 Norte 0 771.3 -0.2 29
2019-09-06 18:00:00 15.5 18 Nordeste 28 Norte 0 771.3 -0.7 28
2019-09-06 17:00:00 17.3 16 Nordeste 30 Norte 0 771.3 -0.9 27
2019-09-06 16:00:00 18 17 Este 35 Este 0 771.5 -0.9 34
2019-09-06 15:00:00 18.6 14 Este 36 Este 0 772 -0.2 36
2019-09-06 14:00:00 18.1 15 Nordeste 39 Este 0 772.2 0.2 33
2019-09-06 13:00:00 17.2 22 Este 47 Este 0 772.4 0.9 35
2019-09-06 12:00:00 17.2 28 Este 51 Este 0 772.2 1.5 38
2019-09-06 11:00:00 15.3 29 Este 49 Este 0 772 1.6 43
2019-09-06 10:00:00 13.2 20 Nordeste 39 Este 0 771.5 1.4 52
2019-09-06 09:00:00 11.8 24 Nordeste 48 Nordeste 0 770.7 0.9 44
2019-09-06 08:00:00 9.3 23 Nordeste 34 Nordeste 0 770.4 0.5 36
2019-09-06 07:00:00 9.5 24 Norte 39 Norte 0 770.1 -0.2 22
2019-09-06 06:00:00 9.2 26 Noroeste 38 Norte 0 769.8 -0.9 31
2019-09-06 05:00:00 8.8 20 Noroeste 27 Noroeste 0 769.9 -1.1 34
2019-09-06 04:00:00 9.8 15 Noroeste 17 Noroeste 0 770.3 -0.7 7
2019-09-06 03:00:00 10.7 14 Noroeste 20 Noroeste 0 770.7 -0.2 6
2019-09-06 02:00:00 11.3 14 Noroeste 26 Noroeste 0 771 0.3 5
2019-09-06 01:00:00 10.3 25 Noroeste 36 Noroeste 0 771 0.6 9
2019-09-06 00:00:00 10.5 35 Noroeste 48 Noroeste 0 770.9 0.8 12
2019-09-05 23:00:00 11.4 46 Noroeste 54 Noroeste 0 770.7 0.8 11
2019-09-05 22:00:00 11.9 51 Noroeste 58 Noroeste 0 770.4 0.4 15
2019-09-05 21:00:00 12.2 54 Noroeste 63 Noroeste 0 770.1 -0.1 11
2019-09-05 20:00:00 13.8 56 Noroeste 69 Noroeste 0 769.9 -0.6 22
2019-09-05 19:00:00 16.9 57 Noroeste 71 Noroeste 0 770 -0.9 21
2019-09-05 18:00:00 18 54 Noroeste 80 Noroeste 0 770.2 -1.6 26
2019-09-05 17:00:00 18.8 52 Noroeste 71 Noroeste 0 770.5 -2.1 19
2019-09-05 16:00:00 18.3 48 Noroeste 59 Noroeste 0 770.9 -1.7 29
2019-09-05 15:00:00 19.2 33 Noroeste 46 Noroeste 0 771.8 -0.8 30
2019-09-05 14:00:00 19.8 21 Noroeste 50 Noroeste 0 772.6 0.2 29
2019-09-05 13:00:00 20.2 32 Noroeste 60 Noroeste 0 772.6 0.4 27
2019-09-05 12:00:00 20 38 Noroeste 62 Noroeste 0 772.6 0.7 28
2019-09-05 11:00:00 19 45 Noroeste 62 Noroeste 0 772.4 0.9 31
2019-09-05 10:00:00 17.7 44 Noroeste 62 Noroeste 0 772.2 0.8 39
2019-09-05 09:00:00 16.1 47 Noroeste 63 Noroeste 0 771.9 0.8 46
2019-09-05 08:00:00 14.9 49 Noroeste 59 Noroeste 0 771.5 0.1 47
2019-09-05 07:00:00 14.7 51 Noroeste 60 Noroeste 0 771.4 -0.1 31
2019-09-05 06:00:00 14.5 53 Noroeste 60 Noroeste 0 771.1 -0.8 30
2019-09-05 05:00:00 14.2 46 Noroeste 55 Noroeste 0 771.4 -1.2 28
2019-09-05 04:00:00 15 47 Noroeste 54 Noroeste 0 771.5 -1.5 36
2019-09-05 03:00:00 14.9 46 Noroeste 51 Noroeste 0 771.9 -1.5 35
2019-09-05 02:00:00 15 38 Noroeste 46 Noroeste 0 772.6 -0.9 34
2019-09-05 01:00:00 14.8 37 Noroeste 45 Noroeste 0 773 -0.3 24
2019-09-05 00:00:00 14.8 28 Noroeste 38 Noroeste 0 773.4 0.2 29
2019-09-04 23:00:00 14.9 34 Noroeste 41 Noroeste 0 773.5 0.2 25
2019-09-04 22:00:00 15.3 36 Noroeste 43 Noroeste 0 773.3 0.1 29
2019-09-04 21:00:00 15.6 34 Noroeste 45 Noroeste 0 773.2 0 28
2019-09-04 20:00:00 17.4 28 Noroeste 39 Noroeste 0 773.3 -0.3 26
2019-09-04 19:00:00 18.3 28 Noroeste 41 Noroeste 0 773.2 -0.5 30
2019-09-04 18:00:00 20.1 27 Noroeste 39 Noroeste 0 773.2 -0.7 31
2019-09-04 17:00:00 20.1 11 Noroeste 26 Noroeste 0 773.6 -0.4 36
2019-09-04 16:00:00 20.3 14 Noroeste 26 Noroeste 0 773.7 -0.4 36
2019-09-04 15:00:00 20.4 11 Noroeste 27 Noroeste 0 773.9 -0.3 35
2019-09-04 14:00:00 21.1 24 Noroeste 42 Noroeste 0 774 0 33
2019-09-04 13:00:00 21.4 23 Noroeste 40 Norte 0 774.1 0.3 34
2019-09-04 12:00:00 20.2 23 Noroeste 45 Noroeste 0 774.2 0.8 38
2019-09-04 11:00:00 18.9 25 Noroeste 38 Noroeste 0 774 1.2 40
2019-09-04 10:00:00 17.5 10 Noroeste 42 Noroeste 0 773.8 1.3 39
2019-09-04 09:00:00 16.1 19 Noroeste 51 Oeste 0 773.4 1.3 45
2019-09-04 08:00:00 15 39 Oeste 51 Oeste 0 772.8 0.8 49
2019-09-04 07:00:00 15.3 39 Oeste 64 Oeste 0 772.5 0.5 49
2019-09-04 06:00:00 15.3 48 Oeste 67 Noroeste 0 772.1 -0.6 53
2019-09-04 05:00:00 15.3 43 Noroeste 62 Oeste 0 772 -0.9 53
2019-09-04 04:00:00 15.2 42 Noroeste 59 Oeste 0 772 -1.3 51
2019-09-04 03:00:00 15.1 41 Noroeste 59 Noroeste 0 772.7 -0.6 49
2019-09-04 02:00:00 15.2 45 Noroeste 57 Noroeste 0 772.9 -0.6 34
2019-09-04 01:00:00 14.9 44 Noroeste 56 Noroeste 0 773.3 -0.4 28
2019-09-04 00:00:00 15.3 47 Noroeste 58 Oeste 0 773.3 0.1 31
2019-09-03 23:00:00 15.4 35 Oeste 51 Oeste 0 773.5 0.3 31
2019-09-03 22:00:00 15.5 18 Oeste 38 Noroeste 0 773.7 0.5 30
2019-09-03 21:00:00 15.5 20 Noroeste 28 Noroeste 0 773.2 0 32
2019-09-03 20:00:00 17.1 16 Noroeste 29 Noroeste 0 773.2 0.1 28
2019-09-03 19:00:00 18 10 Noroeste 31 Noroeste 0 773.2 0.3 25
2019-09-03 18:00:00 18.8 18 Noroeste 32 Noroeste 0 773.2 -0.3 22
2019-09-03 17:00:00 18.8 21 Noroeste 39 Noroeste 0 773.1 -0.5 29
2019-09-03 16:00:00 19.3 29 Noroeste 44 Noroeste 0 772.9 -0.7 30
2019-09-03 15:00:00 19.7 15 Noroeste 32 Norte 0 773.5 -0.2 33
2019-09-03 14:00:00 19.8 13 Noroeste 50 Noroeste 0 773.6 0.3 33
2019-09-03 13:00:00 20.3 32 Oeste 54 Oeste 0 773.6 0.7 22
2019-09-03 12:00:00 20.1 32 Oeste 55 Oeste 0 773.7 1.4 23
2019-09-03 11:00:00 18.3 40 Oeste 58 Oeste 0 773.3 1.5 25
2019-09-03 10:00:00 16.7 36 Oeste 54 Oeste 0 772.9 1.2 23
2019-09-03 09:00:00 15.1 42 Oeste 51 Oeste 0 772.3 0.8 23
2019-09-03 08:00:00 14.3 40 Oeste 53 Oeste 0 771.8 0.6 23
2019-09-03 07:00:00 13.4 36 Oeste 47 Oeste 0 771.7 0.6 22
2019-09-03 06:00:00 13.3 30 Noroeste 42 Noroeste 0 771.5 0.2 23
2019-09-03 05:00:00 13.6 37 Noroeste 55 Oeste 0 771.2 -0.4 17
2019-09-03 04:00:00 14.6 44 Oeste 57 Oeste 0 771.1 -0.8 25
2019-09-03 03:00:00 14.6 43 Oeste 57 Oeste 0 771.3 -0.8 27
2019-09-03 02:00:00 14.4 39 Oeste 49 Noroeste 0 771.6 -0.6 26
2019-09-03 01:00:00 14.4 36 Noroeste 45 Noroeste 0 771.9 -0.3 26
2019-09-03 00:00:00 15 35 Oeste 49 Noroeste 0 772.1 0.3 30
2019-09-02 23:00:00 15.2 34 Oeste 45 Oeste 0 772.2 0.9 29
2019-09-02 22:00:00 14.5 15 Noroeste 32 Noroeste 0 772.2 1.1 28
2019-09-02 21:00:00 15.1 26 Noroeste 42 Noroeste 0 771.8 0.9 27
2019-09-02 20:00:00 16.7 33 Noroeste 51 Noroeste 0 771.3 0.7 25
2019-09-02 19:00:00 18.2 36 Noroeste 51 Noroeste 0 771.1 -0.1 25
2019-09-02 18:00:00 19.5 42 Noroeste 62 Noroeste 0 770.9 -0.5 23
2019-09-02 17:00:00 20.2 49 Noroeste 65 Noroeste 0 770.6 -1 22
2019-09-02 16:00:00 20.8 41 Noroeste 62 Noroeste 0 771.2 -0.4 23
2019-09-02 15:00:00 20.2 36 Noroeste 62 Noroeste 0 771.4 -0.5 25
2019-09-02 14:00:00 20.1 34 Noroeste 55 Noroeste 0 771.6 -0.1 24
2019-09-02 13:00:00 19.2 36 Noroeste 57 Noroeste 0 771.6 0.3 20
2019-09-02 12:00:00 19.1 28 Noroeste 59 Noroeste 0 771.9 1 18
2019-09-02 11:00:00 18.4 35 Noroeste 58 Noroeste 0 771.7 1.3 19
2019-09-02 10:00:00 17 40 Noroeste 61 Noroeste 0 771.3 2.3 20
2019-09-02 09:00:00 15.2 32 Noroeste 54 Noroeste 0 770.9 0.9 20
2019-09-02 08:00:00 14.8 36 Noroeste 81 Noroeste 0 770.4 0.2 26
2019-09-02 07:00:00 15.1 68 Noroeste 84 Noroeste 0 769 -1.7 24
2019-09-02 06:00:00 14.2 44 Noroeste 59 Noroeste 0 770 -1 23
2019-09-02 05:00:00 13.7 29 Noroeste 57 Noroeste 0 770.2 -1.3 20
2019-09-02 04:00:00 13.5 22 Noroeste 34 Noroeste 0 770.7 -0.8 18
2019-09-02 03:00:00 13.2 28 Noroeste 36 Oeste 0 771 -0.6 12
2019-09-02 02:00:00 12.7 15 Noroeste 25 Noroeste 0 771.5 -0.5 20
2019-09-02 01:00:00 13.3 16 Noroeste 31 Noroeste 0 771.5 -0.4 16
2019-09-02 00:00:00 13.1 24 Noroeste 30 Noroeste 0 771.6 0 21
2019-09-01 23:00:00 13.1 15 Noroeste 23 Noroeste 0 772 0.3 22
2019-09-01 22:00:00 13.2 12 Noroeste 18 Noroeste 0 771.9 0.2 21
2019-09-01 21:00:00 13.8 15 Noroeste 18 Noroeste 0 771.6 -0.2 17
2019-09-01 20:00:00 16.5 14 Noroeste 22 Noroeste 0 771.7 -0.1 23
2019-09-01 19:00:00 18.4 13 Norte 29 Noroeste 0 771.7 -0.4 24
2019-09-01 18:00:00 19.9 18 Norte 30 Norte 0 771.8 -0.7 21
2019-09-01 17:00:00 19.8 16 Norte 26 Noroeste 0 771.8 -1.1 23
2019-09-01 16:00:00 20.1 13 Norte 29 Norte 0 772.1 -0.8 22
2019-09-01 15:00:00 20.8 14 Norte 30 Norte 0 772.5 -0.4 19
2019-09-01 14:00:00 20.1 16 Norte 36 Norte 0 772.9 0.2 21
2019-09-01 13:00:00 20.2 25 Norte 36 Noroeste 0 772.9 0.5 20
2019-09-01 12:00:00 19 31 Noroeste 41 Noroeste 0 772.9 0.9 22
2019-09-01 11:00:00 18.4 33 Norte 54 Noroeste 0 772.7 1.4 25
2019-09-01 10:00:00 16.9 45 Noroeste 55 Noroeste 0 772.4 1 24
2019-09-01 09:00:00 15.5 44 Noroeste 56 Noroeste 0 772 0.5 24
2019-09-01 08:00:00 14.8 52 Noroeste 60 Noroeste 0 771.3 -0.1 21
2019-09-01 07:00:00 13.1 41 Noroeste 44 Noroeste 0 771.4 -0.5 38
2019-09-01 06:00:00 13.3 34 Noroeste 42 Noroeste 0 771.5 -0.6 34
2019-09-01 05:00:00 12.6 36 Noroeste 40 Noroeste 0 771.4 -1.5 31
2019-09-01 04:00:00 12.3 34 Noroeste 42 Noroeste 0 771.9 -1.9 26
2019-09-01 03:00:00 13.2 46 Noroeste 49 Noroeste 0 772.1 -2.3 28
2019-09-01 02:00:00 13.6 34 Noroeste 37 Noroeste 0 772.9 -1.7 28
2019-09-01 01:00:00 14.6 22 Noroeste 26 Noroeste 0 773.8 -0.6 26
2019-09-01 00:00:00 14.8 15 Noroeste 18 Noroeste 0 774.4 0.3 26
2019-08-31 23:00:00 15.4 10 Noroeste 15 Norte 0 774.6 0.6 25
2019-08-31 22:00:00 16.5 14 Norte 16 Norte 0 774.4 0.4 30
2019-08-31 21:00:00 16.1 9 Noroeste 13 Norte 0 774.1 0 30
2019-08-31 20:00:00 17.9 10 Noroeste 20 Noroeste 0 774 -0.3 20
2019-08-31 19:00:00 20 8 Norte 26 Este 0 774 -0.7 20
2019-08-31 18:00:00 19.3 9 Este 19 Sudeste 0 774.1 -0.9 23
2019-08-31 17:00:00 19.5 11 Sudeste 23 Sudeste 0 774.3 -1.1 24
2019-08-31 16:00:00 20 12 Sudeste 21 Sudeste 0 774.7 -0.8 20
2019-08-31 15:00:00 22.3 6 Este 24 Sudeste 0 775 -0.6 19
2019-08-31 14:00:00 21.8 12 Este 28 Sudeste 0 775.4 0.2 21
2019-08-31 13:00:00 22 12 Este 31 Sudeste 0 775.5 0.5 20
2019-08-31 12:00:00 22 17 Sudeste 31 Sudeste 0 775.6 0.9 19
2019-08-31 11:00:00 21.2 17 Este 32 Este 0 775.2 0.8 23
2019-08-31 10:00:00 19.8 14 Este 27 Sudeste 0 775 0.6 23
2019-08-31 09:00:00 18.1 14 Este 20 Este 0 774.7 0.3 26
2019-08-31 08:00:00 14.9 12 Norte 15 Nordeste 0 774.4 0 25
2019-08-31 07:00:00 16.1 10 Nordeste 14 Nordeste 0 774.4 -0.2 22
2019-08-31 06:00:00 15.6 5 Nordeste 13 Este 0 774.4 -0.7 22
2019-08-31 05:00:00 15.9 5 Nordeste 12 Norte 0 774.4 -1.2 22
2019-08-31 04:00:00 16.1 10 Nordeste 15 Nordeste 0 774.6 -1.2 22
2019-08-31 03:00:00 16.1 11 Este 14 Nordeste 0 775.1 -0.9 23
2019-08-31 02:00:00 16.1 11 Este 14 Este 0 775.6 -0.5 22
2019-08-31 01:00:00 16.4 9 Nordeste 15 Este 0 775.8 0.2 21
2019-08-31 00:00:00 15.9 10 Nordeste 15 Nordeste 0 776 0.8 24
2019-08-30 23:00:00 16.5 10 Nordeste 15 Norte 0 776.1 1.2 23
2019-08-30 22:00:00 16 12 Norte 18 Norte 0 775.6 0.6 25
2019-08-30 21:00:00 16.2 12 Norte 19 Norte 0 775.2 0.1 26
2019-08-30 20:00:00 17.8 10 Norte 15 Norte 0 774.9 -0.2 27
2019-08-30 19:00:00 18.2 10 Sudeste 17 Sudeste 0 775 -0.2 19
2019-08-30 18:00:00 19 12 Sudeste 22 Sudeste 0 775.1 -0.3 20
2019-08-30 17:00:00 20.6 16 Sudeste 31 Sudeste 0 775.1 -0.6 18
2019-08-30 16:00:00 21.3 23 Sudeste 36 Sudeste 0 775.2 -0.6 17
2019-08-30 15:00:00 22.2 22 Sudeste 33 Sudeste 0 775.4 -0.7 16
2019-08-30 14:00:00 22.1 23 Sudeste 37 Sudeste 0 775.7 -0.2 17
2019-08-30 13:00:00 21.6 18 Sudeste 33 Sudeste 0 775.8 0.2 19
2019-08-30 12:00:00 21 14 Sudeste 28 Sudeste 0 776.1 0.8 20
2019-08-30 11:00:00 20.4 12 Sudeste 24 Sudeste 0 775.9 0.8 20
2019-08-30 10:00:00 19.7 10 Este 21 Este 0 775.6 0.8 22
2019-08-30 09:00:00 17.3 7 Sudeste 13 Sudeste 0 775.3 0.8 24
2019-08-30 08:00:00 15.3 11 Sudeste 15 Sudeste 0 775.1 0.5 27
2019-08-30 07:00:00 15.5 10 Sudeste 14 Sudeste 0 774.8 0.2 24
2019-08-30 06:00:00 15.6 9 Sudeste 13 Sur 0 774.5 -0.4 23
2019-08-30 05:00:00 15.6 9 Sudeste 10 Sudeste 0 774.6 -0.3 24
2019-08-30 04:00:00 15 9 Este 12 Sudeste 0 774.6 -0.8 26
2019-08-30 03:00:00 14.9 10 Sudeste 12 Sudeste 0 774.9 -0.6 28
2019-08-30 02:00:00 15.4 7 Este 11 Este 0 774.9 -0.5 27
2019-08-30 01:00:00 15.1 9 Sudeste 14 Sudeste 0 775.4 0.4 27
2019-08-30 00:00:00 15.2 9 Este 14 Este 0 775.5 0.7 27
2019-08-29 23:00:00 15.6 9 Este 16 Este 0 775.4 1.1 26
2019-08-29 22:00:00 16.2 9 Este 13 Este 0 775 1 25
2019-08-29 21:00:00 16.8 8 Este 10 Este 0 774.8 0.6 25
2019-08-29 20:00:00 18.4 9 Este 11 Este 0 774.3 0 22
2019-08-29 19:00:00 19.8 7 Este 18 Sudeste 0 774 -0.5 23
2019-08-29 18:00:00 20.6 12 Sudeste 23 Sudeste 0 774.2 -0.5 23
2019-08-29 17:00:00 20.8 17 Sudeste 30 Sur 0 774.3 -0.6 24
2019-08-29 16:00:00 20.9 15 Sudeste 31 Sudeste 0 774.5 -0.5 24
2019-08-29 15:00:00 21.3 21 Sudeste 32 Sudeste 0 774.7 -0.1 24
2019-08-29 14:00:00 21 18 Sudeste 32 Sudeste 0 774.9 0.1 24
2019-08-29 13:00:00 21.5 20 Sudeste 32 Sudeste 0 775 0.6 22
2019-08-29 12:00:00 20.3 17 Sudeste 29 Sudeste 0 774.8 0.8 26
2019-08-29 11:00:00 19.8 15 Sudeste 21 Sudeste 0 774.8 1.2 23
2019-08-29 10:00:00 18.8 12 Sudeste 20 Sudeste 0 774.4 1.1 29
2019-08-29 09:00:00 17.7 7 Este 14 Este 0 774 0.9 26
2019-08-29 08:00:00 15.4 8 Norte 11 Nordeste 0 773.6 0.3 28
2019-08-29 07:00:00 15.4 5 Nordeste 13 Nordeste 0 773.3 -0.2 27
2019-08-29 06:00:00 15 9 Nordeste 11 Norte 0 773.1 -0.7 28
2019-08-29 05:00:00 15.5 5 Nordeste 11 Noroeste 0 773.3 -0.7 27
2019-08-29 04:00:00 14.9 12 Noroeste 16 Norte 0 773.5 -0.7 29
2019-08-29 03:00:00 15.3 7 Norte 12 Norte 0 773.8 -0.3 29
2019-08-29 02:00:00 15.4 8 Norte 12 Norte 0 774 -0.1 28
2019-08-29 01:00:00 14.9 11 Noroeste 13 Noroeste 0 774.2 0.5 29
2019-08-29 00:00:00 14.8 10 Noroeste 14 Noroeste 0 774.1 0.8 29
2019-08-28 23:00:00 14.8 13 Noroeste 16 Noroeste 0 774.1 0.9 35
2019-08-28 22:00:00 15.1 11 Noroeste 14 Noroeste 0 773.7 0.7 37
2019-08-28 21:00:00 15.9 8 Noroeste 15 Noroeste 0 773.3 0.1 34
2019-08-28 20:00:00 18.1 10 Noroeste 24 Noroeste 0 773.2 0.1 28
2019-08-28 19:00:00 20.2 11 Norte 32 Este 0 773 -0.1 24
2019-08-28 18:00:00 21.1 5 Nordeste 33 Norte 0 773.2 0 25
2019-08-28 17:00:00 21.7 12 Oeste 51 Norte 0 773.1 -0.2 22
2019-08-28 16:00:00 22.4 6 Sudeste 43 Sudoeste 0 773.1 -0.4 20
2019-08-28 15:00:00 22.4 13 Sudoeste 24 Oeste 0 773.2 -0.5 20
2019-08-28 14:00:00 22.8 6 Nordeste 29 Nordeste 0 773.3 -0.1 20
2019-08-28 13:00:00 21.7 10 Norte 24 Norte 0 773.5 0.6 19
2019-08-28 12:00:00 20.3 14 Norte 24 Norte 0 773.7 1 23
2019-08-28 11:00:00 19.3 14 Norte 20 Norte 0 773.4 1.1 28
2019-08-28 10:00:00 18.2 17 Norte 22 Noroeste 0 772.9 0.6 25
2019-08-28 09:00:00 16.1 15 Noroeste 17 Noroeste 0 772.7 0.4 31
2019-08-28 08:00:00 14.5 13 Noroeste 17 Norte 0 772.3 0.1 21
2019-08-28 07:00:00 14.1 14 Norte 15 Norte 0 772.3 -0.3 23
2019-08-28 06:00:00 14.5 12 Norte 19 Noroeste 0 772.3 -0.7 20
2019-08-28 05:00:00 14.6 12 Norte 14 Noroeste 0 772.2 -1.1 21
2019-08-28 04:00:00 15.1 9 Norte 13 Norte 0 772.6 -1.1 20
2019-08-28 03:00:00 15.8 10 Nordeste 13 Norte 0 773 -0.9 21
2019-08-28 02:00:00 14.4 11 Norte 16 Norte 0 773.3 -0.7 24
2019-08-28 01:00:00 14.4 13 Norte 15 Norte 0 773.7 0 34
2019-08-28 00:00:00 14 13 Norte 15 Norte 0 773.9 0.6 37
2019-08-27 23:00:00 14.6 10 Norte 13 Norte 0 774 0.8 35
2019-08-27 22:00:00 15.4 9 Norte 10 Norte 0 773.7 0.6 33
2019-08-27 21:00:00 16.5 2 Sudeste 12 Noroeste 0 773.3 0.3 31
2019-08-27 20:00:00 17.3 8 Noroeste 17 Norte 0 773.2 0.3 31
2019-08-27 19:00:00 20.1 10 Norte 21 Norte 0 773.1 -0.2 25
2019-08-27 18:00:00 19.7 10 Norte 27 Norte 0 773 -0.6 28
2019-08-27 17:00:00 21 14 Norte 26 Norte 0 772.9 -0.9 28
2019-08-27 16:00:00 21.4 10 Sudeste 27 Sudeste 0 773.3 -0.9 27
2019-08-27 15:00:00 23 12 Sudeste 29 Nordeste 0 773.6 -0.7 24
2019-08-27 14:00:00 22.7 7 Noroeste 24 Sudeste 0 773.8 -0.3 26
2019-08-27 13:00:00 20.9 16 Sudeste 26 Sudeste 0 774.2 0.5 27
2019-08-27 12:00:00 21.2 13 Sudeste 25 Sudeste 0 774.3 1 26
2019-08-27 11:00:00 20.8 8 Este 19 Este 0 774.1 1.3 27
2019-08-27 10:00:00 17.7 5 Norte 9 Norte 0 773.7 1.1 32
2019-08-27 09:00:00 16.2 5 Sudeste 10 Sudeste 0 773.3 1 35
2019-08-27 08:00:00 15.5 12 Sudeste 14 Sudeste 0 772.8 0.6 35
2019-08-27 07:00:00 15.5 12 Sudeste 18 Sur 0 772.6 0 37
2019-08-27 06:00:00 15.1 18 Sur 23 Sur 0 772.3 -0.6 35
2019-08-27 05:00:00 15.3 20 Sudeste 24 Sudeste 0 772.2 -1.2 34
2019-08-27 04:00:00 15.3 14 Sudeste 24 Sudeste 0 772.6 -1.1 34
2019-08-27 03:00:00 15 19 Sudeste 24 Sudeste 0 772.9 -1 35
2019-08-27 02:00:00 15.5 19 Sudeste 26 Sudeste 0 773.4 -0.4 34
2019-08-27 01:00:00 15.1 15 Sudeste 21 Sudeste 0 773.7 0.2 34
2019-08-27 00:00:00 15.6 18 Sudeste 23 Este 0 773.9 0.7 33
2019-08-26 23:00:00 15.4 19 Este 26 Este 0 773.8 0.7 34
2019-08-26 22:00:00 15.5 18 Este 23 Este 0 773.5 0.6 33
2019-08-26 21:00:00 15.7 17 Este 22 Este 0 773.2 0.3 32
2019-08-26 20:00:00 17.6 9 Nordeste 21 Nordeste 0 773.1 0.1 29
2019-08-26 19:00:00 19.7 12 Nordeste 32 Norte 0 772.9 0 33
2019-08-26 18:00:00 21.6 20 Norte 39 Norte 0 772.9 -0.6 25
2019-08-26 17:00:00 22.2 24 Norte 40 Norte 0 773 -0.9 25
2019-08-26 16:00:00 21.6 26 Norte 37 Norte 0 772.9 -1.4 28
2019-08-26 15:00:00 21.4 19 Norte 37 Norte 0 773.5 -1.1 30
2019-08-26 14:00:00 19.6 23 Norte 30 Norte 0 773.9 -0.6 38
2019-08-26 13:00:00 22.2 12 Este 31 Este 0 774.3 0.1 27
2019-08-26 12:00:00 19.9 13 Este 30 Este 0 774.6 0.8 35
2019-08-26 11:00:00 17.5 14 Nordeste 28 Este 0 774.5 1.1 37
2019-08-26 10:00:00 16.4 17 Sudeste 32 Sudeste 0 774.2 0.9 45
2019-08-26 09:00:00 15.6 26 Sudeste 36 Sudeste 0 773.8 0.4 45
2019-08-26 08:00:00 15.2 24 Sudeste 37 Sudeste 0 773.4 0.2 38
2019-08-26 07:00:00 15.9 21 Sudeste 29 Este 0 773.3 -0.1 44
2019-08-26 06:00:00 15.5 18 Este 26 Este 0 773.4 -0.3 48
2019-08-26 05:00:00 15.3 8 Este 18 Este 0.2 773.2 -0.7 51
2019-08-26 04:00:00 15 16 Este 38 Sudeste 0 773.4 -0.7 56
2019-08-26 03:00:00 16.3 15 Este 21 Este 0 773.7 -0.6 39
2019-08-26 02:00:00 16.6 13 Este 19 Este 0 773.9 -0.3 38
2019-08-26 01:00:00 16.3 15 Este 28 Este 0 774.1 0.3 36
2019-08-26 00:00:00 16.3 21 Sudeste 31 Sudeste 0 774.3 0.6 37
2019-08-25 23:00:00 16.2 21 Sudeste 35 Sudeste 0 774.2 0.8 39
2019-08-25 22:00:00 16.7 29 Sudeste 39 Sudeste 0 773.8 0.3 39
2019-08-25 21:00:00 17.1 23 Sudeste 34 Sudeste 0 773.7 0.3 40
2019-08-25 20:00:00 17.3 29 Sudeste 39 Sudeste 0 773.4 -0.1 42
2019-08-25 19:00:00 18.7 29 Sudeste 41 Sudeste 0 773.5 0 39
2019-08-25 18:00:00 19.4 32 Sur 45 Sur 0 773.4 -0.5 38
2019-08-25 17:00:00 19.9 30 Sudeste 45 Sudeste 0 773.5 -0.9 37
2019-08-25 16:00:00 20.8 37 Sudeste 54 Sudeste 0 773.5 -1 36
2019-08-25 15:00:00 21.7 33 Sudeste 51 Sudeste 0 773.9 -0.9 33
2019-08-25 14:00:00 22.1 33 Sudeste 55 Sudeste 0 774.4 -0.3 32
2019-08-25 13:00:00 22.5 36 Sudeste 50 Sudeste 0 774.5 0 31
2019-08-25 12:00:00 21.8 35 Sudeste 49 Sudeste 0 774.8 0.4 32
2019-08-25 11:00:00 21.2 31 Sudeste 51 Sudeste 0 774.7 0.5 31
2019-08-25 10:00:00 20.4 33 Sudeste 50 Sudeste 0 774.5 0.6 26
2019-08-25 09:00:00 18.5 28 Sudeste 41 Sudeste 0 774.4 0.5 29
2019-08-25 08:00:00 16.9 29 Sudeste 41 Sudeste 0 774.2 0.4 31
2019-08-25 07:00:00 16.4 33 Sudeste 57 Sudeste 0 773.9 -0.2 29
2019-08-25 06:00:00 16.7 36 Sudeste 46 Sudeste 0 773.9 -0.7 29
2019-08-25 05:00:00 16.9 30 Sudeste 45 Sudeste 0 773.8 -1.3 31
2019-08-25 04:00:00 17.5 30 Este 46 Sudeste 0 774.1 -1.2 29
2019-08-25 03:00:00 17.8 30 Este 41 Este 0 774.6 -1 29
2019-08-25 02:00:00 18 28 Este 44 Este 0 775.1 -0.5 29
2019-08-25 01:00:00 18.1 29 Este 48 Sudeste 0 775.3 0 28
2019-08-25 00:00:00 17.9 31 Este 48 Este 0 775.6 0.7 28
2019-08-24 23:00:00 18.1 31 Este 41 Este 0 775.6 0.9 29
2019-08-24 22:00:00 18.3 31 Este 45 Sudeste 0 775.3 0.5 29
2019-08-24 21:00:00 18.3 30 Este 43 Este 0 774.9 0 29
2019-08-24 20:00:00 19.1 25 Este 36 Este 0 774.7 -0.5 27
2019-08-24 19:00:00 22.1 19 Sudeste 45 Sudeste 0 774.8 -0.7 25
2019-08-24 18:00:00 23.4 30 Sudeste 45 Sudeste 0 774.9 -0.7 21
2019-08-24 17:00:00 24.7 26 Sudeste 42 Sudeste 0 775.2 -0.7 20
2019-08-24 16:00:00 24.9 25 Sudeste 42 Sudeste 0 775.5 -0.6 20
2019-08-24 15:00:00 24 30 Sudeste 41 Sudeste 0 775.6 -0.6 21
2019-08-24 14:00:00 23.5 31 Sudeste 40 Sudeste 0 775.9 -0.1 22
2019-08-24 13:00:00 22.8 25 Sudeste 41 Sur 0 776.1 0.5 23
2019-08-24 12:00:00 21.9 29 Sur 85 Sudoeste 0 776.2 1.1 24
2019-08-24 11:00:00 20 53 Sur 75 Sur 0 776 1.3 28
2019-08-24 10:00:00 19.3 43 Sudeste 52 Sur 0 775.6 1.1 32
2019-08-24 09:00:00 19.1 40 Sur 48 Sudeste 0 775.1 0.7 33
2019-08-24 08:00:00 18.8 35 Sudeste 43 Sudeste 0 774.7 0.5 31
2019-08-24 07:00:00 18.3 30 Sudeste 50 Sudeste 0 774.5 0.1 31
2019-08-24 06:00:00 17.7 33 Sudeste 43 Sudeste 0 774.4 -0.4 26
2019-08-24 05:00:00 19.8 22 Sudeste 32 Sudeste 0 774.2 -1 23
2019-08-24 04:00:00 19.9 19 Sudeste 32 Sudeste 0 774.4 -1.1 23
2019-08-24 03:00:00 20.3 23 Sudeste 30 Sudeste 0 774.8 -0.7 23
2019-08-24 02:00:00 20.6 22 Sudeste 33 Sudeste 0 775.2 -0.2 23
2019-08-24 01:00:00 20.7 24 Sudeste 34 Sur 0 775.5 0.5 22
2019-08-24 00:00:00 21 29 Sudeste 40 Sudeste 0 775.5 1 22
2019-08-23 23:00:00 21.2 30 Sur 40 Sudeste 0 775.4 1 22
2019-08-23 22:00:00 21.3 28 Sur 35 Sur 0 775 0.6 22
2019-08-23 21:00:00 21.5 21 Sur 26 Sur 0 774.5 0 21
2019-08-23 20:00:00 22.4 18 Sur 31 Sur 0 774.4 0 20
2019-08-23 19:00:00 23.7 19 Sur 33 Sudeste 0 774.4 0.1 19
2019-08-23 18:00:00 24.5 21 Sur 37 Sur 0 774.5 0 18
2019-08-23 17:00:00 24.6 25 Sur 41 Sur 0 774.4 -0.2 18
2019-08-23 16:00:00 24.9 32 Sur 52 Sur 0 774.3 -0.5 18
2019-08-23 15:00:00 25.3 35 Sur 50 Sur 0 774.5 -0.4 18
2019-08-23 14:00:00 25.8 35 Sur 49 Sudeste 0 774.6 -0.3 19
2019-08-23 13:00:00 26.3 33 Sudeste 54 Sudeste 0 774.8 0.1 16
2019-08-23 12:00:00 24.9 35 Sudeste 51 Sudeste 0 774.9 0.6 16
2019-08-23 11:00:00 23.8 32 Sudeste 44 Sudeste 0 774.9 1 18
2019-08-23 10:00:00 23.3 23 Sudeste 32 Sudeste 0 774.7 1.3 19
2019-08-23 09:00:00 21.2 13 Sudeste 18 Sudeste 0 774.3 1 22
2019-08-23 08:00:00 20.4 11 Sudeste 16 Sudeste 0 773.9 0.6 20
2019-08-23 07:00:00 20.4 15 Sudeste 17 Sudeste 0 773.4 0 18
2019-08-23 06:00:00 20.2 12 Sudeste 18 Sur 0 773.3 -0.2 21
2019-08-23 05:00:00 20.6 14 Sur 16 Sur 0 773.3 -0.5 19
2019-08-23 04:00:00 20.4 3 Sudoeste 8 Sur 0 773.4 -0.6 18
2019-08-23 03:00:00 20.1 8 Sur 15 Sur 0 773.5 -0.5 21
2019-08-23 02:00:00 19.9 15 Sur 18 Sur 0 773.8 -0.2 22
2019-08-23 01:00:00 20.2 14 Sudoeste 16 Sudoeste 0 774 0.4 22
2019-08-23 00:00:00 20.1 12 Sur 16 Sur 0 774 0.6 24
2019-08-22 23:00:00 20.2 14 Sur 18 Sudoeste 0 774 1 24
2019-08-22 22:00:00 20.5 12 Sudoeste 17 Sudoeste 0 773.6 0.9 23
2019-08-22 21:00:00 20.5 11 Sudoeste 14 Sudoeste 0 773.4 0.8 22
2019-08-22 20:00:00 21.5 8 Sudeste 11 Sudeste 0 773 0.3 17
2019-08-22 19:00:00 23.3 4 Sudeste 14 Sudeste 0 772.7 0.1 14
2019-08-22 18:00:00 23.4 5 Sudeste 23 Noroeste 0 772.6 -0.1 18
2019-08-22 17:00:00 24.6 5 Sudoeste 45 Oeste 0 772.7 -0.1 17
2019-08-22 16:00:00 26.8 9 Oeste 37 Sudoeste 0 772.6 -0.3 17
2019-08-22 15:00:00 27.4 19 Sudoeste 54 Oeste 0 772.7 -0.2 14
2019-08-22 14:00:00 26.9 14 Sudoeste 45 Sudoeste 0 772.8 0 14
2019-08-22 13:00:00 26.4 13 Sudoeste 41 Sur 0 772.9 0.4 15
2019-08-22 12:00:00 26.5 18 Sudoeste 39 Oeste 0 772.9 0.9 13
2019-08-22 11:00:00 25.3 15 Oeste 32 Oeste 0 772.8 1.4 13
2019-08-22 10:00:00 23.3 19 Oeste 30 Oeste 0 772.5 1.2 16
2019-08-22 09:00:00 20.8 23 Oeste 35 Oeste 0 772 0.9 19
2019-08-22 08:00:00 19.4 30 Oeste 41 Oeste 0 771.4 0.3 18
2019-08-22 07:00:00 18.3 26 Oeste 34 Oeste 0 771.3 -0.1 16
2019-08-22 06:00:00 17.2 15 Sudoeste 21 Sudoeste 0 771.1 -0.5 17
2019-08-22 05:00:00 17.3 9 Oeste 12 Oeste 0 771.1 -0.9 11
2019-08-22 04:00:00 15.7 7 Sudeste 15 Este 0 771.4 -1.1 10
2019-08-22 03:00:00 15.1 13 Este 23 Este 0 771.6 -1.1 12
2019-08-22 02:00:00 13.4 13 Sudeste 19 Este 0 772 -0.8 37
2019-08-22 01:00:00 13.6 15 Este 21 Este 0 772.5 -0.1 19
2019-08-22 00:00:00 13.6 15 Este 21 Este 0 772.7 0.4 30
2019-08-21 23:00:00 13.8 13 Este 23 Este 0 772.8 0.7 26
2019-08-21 22:00:00 14.7 17 Este 24 Este 0 772.6 0.5 21
2019-08-21 21:00:00 14 16 Este 19 Este 0 772.3 0.2 39
2019-08-21 20:00:00 16.2 15 Este 21 Este 0 772.1 0 23
2019-08-21 19:00:00 17.4 12 Nordeste 20 Este 0 772.1 0 33
2019-08-21 18:00:00 19.3 12 Este 20 Este 0 772.1 -0.3 40
2019-08-21 17:00:00 19.7 13 Sudeste 28 Este 0 772.1 -0.7 37
2019-08-21 16:00:00 20.9 17 Este 32 Sudeste 0 772.1 -1 36
2019-08-21 15:00:00 21.1 15 Sudeste 27 Sudeste 0 772.4 -0.8 35
2019-08-21 14:00:00 20.8 17 Sudeste 36 Sudeste 0 772.8 -0.3 37
2019-08-21 13:00:00 20.7 13 Este 27 Sudeste 0 773.1 0.3 38
2019-08-21 12:00:00 19.4 8 Este 19 Nordeste 0 773.2 0.6 44
2019-08-21 11:00:00 16.6 13 Norte 24 Norte 0 773.1 0.8 48
2019-08-21 10:00:00 14.8 14 Noroeste 28 Norte 0 772.8 -- 53
2019-08-21 09:00:00 13.1 18 Norte 29 Norte 0 772.6 -- 51
2019-08-21 08:00:00 12.3 19 Norte 32 Norte 0 772.3 -- 49
2019-08-21 07:00:00 12.6 23 Norte 34 Norte 0 -- -- 32
2019-08-21 06:00:00 12.6 21 Norte 35 Norte 0 -- -- 32
2019-08-21 05:00:00 12.4 21 Noroeste 32 Norte 0 -- -- 25
2019-08-21 04:00:00 12.1 26 Norte 38 Norte 0 -- -- 25
2019-08-21 03:00:00 11.9 24 Noroeste 33 Noroeste 0 772.9 -0.8 23
2019-08-21 02:00:00 12 30 Norte 42 Norte 0 773.1 -0.3 23
2019-08-21 01:00:00 12.7 29 Norte 41 Norte 0 773.6 0.4 20
2019-08-21 00:00:00 12.7 33 Norte 49 Norte 0 773.7 0.6 20